Time;durP1;ratioP1;P1;durP2;ratioP2;P2;SDS_P1;SDS_P2;PMS_P1;PMS_P2;Temp;Humidity;BMP_temperature;BMP_pressure;BME280_temperature;BME280_humidity;BME280_pressure;Samples;Min_cycle;Max_cycle;Signal;HPM_P1;HPM_P2
2022/11/18 00:01:20;;;;;;;9.13;5.50;;;13.90;96.70;;;;;;5092742;27;20043;-73
2022/11/18 00:03:50;;;;;;;10.15;5.40;;;13.90;96.70;;;;;;5107531;27;20043;-71
2022/11/18 00:06:19;;;;;;;9.60;5.60;;;13.90;96.70;;;;;;5113757;27;20036;-72
2022/11/18 00:08:48;;;;;;;5.40;4.28;;;13.90;96.70;;;;;;5103752;27;20484;-73
2022/11/18 00:14:18;;;;;;;4.75;3.53;;;14.00;96.70;;;;;;5087624;27;20043;-72
2022/11/18 00:16:47;;;;;;;7.38;4.05;;;14.00;96.70;;;;;;5090274;27;20126;-72
2022/11/18 00:19:15;;;;;;;5.45;3.60;;;14.00;96.70;;;;;;5097846;28;20034;-72
2022/11/18 00:21:44;;;;;;;7.60;3.50;;;14.00;96.70;;;;;;5114517;27;20101;-72
2022/11/18 00:24:12;;;;;;;5.57;3.58;;;14.00;96.70;;;;;;5095272;28;20502;-72
2022/11/18 00:26:40;;;;;;;5.82;3.55;;;14.10;96.70;;;;;;5103369;27;20035;-72
2022/11/18 00:29:10;;;;;;;6.40;3.50;;;14.10;96.70;;;;;;5093705;27;20053;-72
2022/11/18 00:31:39;;;;;;;5.65;3.50;;;14.00;96.70;;;;;;5091313;27;20136;-72
2022/11/18 00:34:09;;;;;;;5.20;4.00;;;14.10;96.70;;;;;;5089556;28;20070;-72
2022/11/18 00:36:37;;;;;;;6.45;3.65;;;14.10;96.70;;;;;;5091792;28;20051;-73
2022/11/18 00:39:05;;;;;;;5.15;3.50;;;14.10;96.70;;;;;;5070663;27;20085;-72
2022/11/18 00:44:22;;;;;;;7.20;4.05;;;14.10;96.70;;;;;;5094976;27;20149;-73
2022/11/18 00:46:49;;;;;;;7.07;3.47;;;14.10;96.70;;;;;;5121933;27;20039;-73
2022/11/18 00:49:18;;;;;;;5.53;3.85;;;14.10;96.70;;;;;;5104402;27;20125;-73
2022/11/18 00:51:46;;;;;;;4.63;3.03;;;14.20;96.70;;;;;;5116096;27;20072;-73
2022/11/18 00:54:14;;;;;;;5.22;3.90;;;14.20;96.70;;;;;;5102061;27;20043;-73
2022/11/18 00:56:42;;;;;;;6.03;4.00;;;14.20;96.70;;;;;;5093131;28;20755;-73
2022/11/18 00:59:10;;;;;;;5.45;4.32;;;14.20;96.70;;;;;;5104186;28;20397;-72
2022/11/18 01:01:40;;;;;;;6.68;4.68;;;14.10;96.70;;;;;;5085193;28;20040;-73
2022/11/18 01:04:08;;;;;;;5.63;4.03;;;14.10;96.70;;;;;;5106887;27;20189;-73
2022/11/18 01:06:36;;;;;;;6.38;4.30;;;14.10;96.70;;;;;;5077256;27;22005;-73
2022/11/18 01:09:04;;;;;;;6.30;4.78;;;14.10;96.70;;;;;;5109877;27;20053;-72
2022/11/18 01:14:32;;;;;;;7.30;5.32;;;14.10;96.70;;;;;;5037113;28;20120;-73
2022/11/18 01:17:01;;;;;;;10.60;5.07;;;14.10;96.70;;;;;;5103517;28;20413;-73
2022/11/18 01:19:29;;;;;;;6.22;5.25;;;14.10;96.70;;;;;;5085234;28;20085;-73
2022/11/18 01:22:01;;;;;;;8.43;4.78;;;14.10;96.70;;;;;;5111094;27;20100;-72
2022/11/18 01:24:31;;;;;;;6.57;4.60;;;14.10;96.70;;;;;;5115273;27;20450;-73
2022/11/18 01:26:59;;;;;;;7.88;4.72;;;14.10;96.70;;;;;;5087526;28;20489;-73
2022/11/18 01:29:27;;;;;;;6.05;4.40;;;14.10;96.70;;;;;;5099082;27;20428;-73
2022/11/18 01:31:54;;;;;;;6.03;3.90;;;14.10;96.70;;;;;;5110073;27;20041;-73
2022/11/18 01:34:43;;;;;;;7.28;4.45;;;14.20;96.70;;;;;;5090364;27;20096;-73
2022/11/18 01:37:11;;;;;;;4.63;3.33;;;14.20;96.70;;;;;;5089933;27;20086;-73
2022/11/18 01:39:39;;;;;;;11.50;4.30;;;14.20;96.70;;;;;;5103852;27;20043;-72
2022/11/18 01:42:13;;;;;;;6.00;3.50;;;14.20;96.70;;;;;;5104460;27;20036;-73
2022/11/18 01:45:14;;;;;;;6.05;4.18;;;14.20;96.70;;;;;;5118771;27;20508;-73
2022/11/18 01:47:44;;;;;;;6.65;3.97;;;14.20;96.70;;;;;;5109721;27;20050;-73
2022/11/18 01:50:14;;;;;;;6.55;3.58;;;14.20;96.70;;;;;;5104718;27;20043;-72
2022/11/18 01:52:42;;;;;;;4.85;4.00;;;14.20;96.70;;;;;;5105170;27;20163;-71
2022/11/18 01:55:22;;;;;;;5.57;3.50;;;14.20;96.70;;;;;;5113018;27;20075;-73
2022/11/18 01:57:55;;;;;;;7.05;4.15;;;14.20;96.70;;;;;;5112964;27;20608;-73
2022/11/18 02:00:22;;;;;;;4.82;4.00;;;14.20;96.70;;;;;;5110225;27;20394;-73
2022/11/18 02:02:50;;;;;;;5.18;3.72;;;14.10;96.70;;;;;;5066870;28;20048;-73
2022/11/18 02:05:21;;;;;;;5.97;3.85;;;14.10;96.70;;;;;;5101854;27;20052;-73
2022/11/18 02:07:50;;;;;;;8.07;3.53;;;14.10;96.70;;;;;;5120300;27;20088;-73
2022/11/18 02:10:20;;;;;;;5.35;3.92;;;14.10;96.70;;;;;;5109931;27;20070;-74
2022/11/18 02:12:48;;;;;;;6.75;4.28;;;14.10;96.70;;;;;;5085534;28;20075;-73
2022/11/18 02:15:22;;;;;;;4.30;3.60;;;14.10;96.70;;;;;;5087331;28;20082;-73
2022/11/18 02:17:59;;;;;;;8.70;4.50;;;14.00;96.70;;;;;;5086289;27;20064;-73
2022/11/18 02:20:35;;;;;;;6.25;3.80;;;14.00;96.70;;;;;;5110011;27;20503;-73
2022/11/18 02:23:41;;;;;;;4.60;3.88;;;14.00;96.70;;;;;;5091027;27;20045;-73
2022/11/18 02:26:43;;;;;;;5.75;4.32;;;14.00;96.70;;;;;;5077915;28;20044;-73
2022/11/18 02:29:16;;;;;;;7.50;4.40;;;14.00;96.70;;;;;;5101647;27;20428;-73
2022/11/18 02:31:51;;;;;;;5.22;3.67;;;14.00;96.70;;;;;;5082026;28;20713;-73
2022/11/18 02:34:31;;;;;;;6.70;4.35;;;14.00;96.70;;;;;;5090552;28;20050;-73
2022/11/18 02:37:04;;;;;;;10.25;4.30;;;14.00;96.70;;;;;;5110590;28;20035;-73
2022/11/18 02:39:35;;;;;;;7.22;3.90;;;14.00;96.70;;;;;;5107541;28;20049;-73
2022/11/18 02:42:07;;;;;;;6.45;4.00;;;14.00;96.70;;;;;;5114101;28;20104;-73
2022/11/18 02:44:39;;;;;;;5.88;4.20;;;14.00;96.70;;;;;;5109383;28;20075;-73
2022/11/18 02:47:12;;;;;;;7.10;4.68;;;14.00;96.70;;;;;;5103685;28;20039;-73
2022/11/18 02:49:45;;;;;;;10.45;6.30;;;13.90;96.70;;;;;;5084193;28;20154;-73
2022/11/18 02:52:15;;;;;;;10.48;5.43;;;13.90;96.70;;;;;;5097294;28;20523;-73
2022/11/18 02:54:46;;;;;;;7.22;4.07;;;13.90;96.70;;;;;;5086597;28;20040;-73
2022/11/18 02:57:15;;;;;;;6.10;3.60;;;13.90;96.70;;;;;;5115702;28;20096;-72
2022/11/18 02:59:44;;;;;;;6.75;3.67;;;14.00;96.70;;;;;;5102429;28;20062;-73
2022/11/18 03:02:16;;;;;;;9.75;3.90;;;14.00;96.70;;;;;;5098255;28;20050;-73
2022/11/18 03:04:47;;;;;;;4.55;3.40;;;14.00;96.70;;;;;;5074657;28;20815;-72
2022/11/18 03:07:21;;;;;;;8.48;3.88;;;14.00;96.70;;;;;;5086184;28;20040;-73
2022/11/18 03:09:51;;;;;;;5.20;3.45;;;14.00;96.70;;;;;;5100109;28;20520;-73
2022/11/18 03:12:27;;;;;;;5.57;2.75;;;14.00;96.70;;;;;;5106544;28;20048;-73
2022/11/18 03:15:02;;;;;;;4.82;3.30;;;14.00;96.70;;;;;;5090826;28;20039;-73
2022/11/18 03:17:39;;;;;;;11.05;3.33;;;13.90;96.70;;;;;;5091577;28;20054;-71
2022/11/18 03:20:15;;;;;;;11.65;4.07;;;14.00;96.70;;;;;;5091580;27;20047;-72
2022/11/18 03:22:48;;;;;;;9.10;3.60;;;14.20;96.70;;;;;;5105472;27;20049;-72
2022/11/18 03:25:21;;;;;;;7.70;3.10;;;14.20;96.70;;;;;;5119510;27;20038;-72
2022/11/18 03:27:53;;;;;;;6.97;3.10;;;14.30;96.70;;;;;;5088968;28;20047;-72
2022/11/18 03:30:24;;;;;;;6.35;2.95;;;14.40;96.70;;;;;;5114966;27;20667;-72
2022/11/18 03:32:56;;;;;;;6.93;2.72;;;14.40;96.70;;;;;;5088644;28;20511;-72
2022/11/18 03:35:27;;;;;;;6.07;2.78;;;14.60;96.70;;;;;;5087455;28;20050;-73
2022/11/18 03:38:02;;;;;;;6.72;2.63;;;14.60;96.70;;;;;;5108561;27;20036;-73
2022/11/18 03:40:33;;;;;;;8.50;2.90;;;14.60;96.70;;;;;;5121195;27;20027;-73
2022/11/18 03:43:05;;;;;;;6.28;2.80;;;14.60;96.70;;;;;;5113254;27;20128;-73
2022/11/18 03:45:41;;;;;;;4.85;2.67;;;14.60;96.70;;;;;;5097425;28;20104;-73
2022/11/18 03:48:12;;;;;;;11.90;3.85;;;14.50;96.70;;;;;;5087426;27;20130;-73
2022/11/18 03:50:44;;;;;;;6.18;2.22;;;14.50;96.70;;;;;;5090169;27;20051;-73
2022/11/18 03:53:15;;;;;;;6.22;2.30;;;14.50;96.70;;;;;;5091079;27;20405;-73
2022/11/18 03:55:48;;;;;;;6.32;1.92;;;14.50;96.70;;;;;;5091638;28;20405;-73
2022/11/18 03:58:23;;;;;;;6.28;1.67;;;14.50;96.70;;;;;;5090351;28;20138;-73
2022/11/18 04:00:58;;;;;;;5.28;1.33;;;14.40;96.70;;;;;;5111564;27;20046;-73
2022/11/18 04:03:26;;;;;;;7.32;1.42;;;14.40;96.70;;;;;;5087440;27;20043;-73
2022/11/18 04:05:59;;;;;;;8.43;1.30;;;14.40;96.70;;;;;;5105446;27;20043;-73
2022/11/18 04:08:35;;;;;;;5.35;1.20;;;14.40;96.70;;;;;;5121878;27;20043;-73
2022/11/18 04:12:01;;;;;;;7.07;1.38;;;14.40;96.70;;;;;;5086407;27;20051;-73
2022/11/18 04:14:00;;;;;;;6.13;1.40;;;14.40;96.70;;;;;;5090608;28;20134;-73
2022/11/18 04:16:29;;;;;;;7.20;1.95;;;14.30;96.70;;;;;;5109394;27;20043;-73
2022/11/18 04:18:56;;;;;;;9.60;1.88;;;14.40;96.70;;;;;;5121539;27;20043;-73
2022/11/18 04:21:32;;;;;;;7.55;1.88;;;14.50;96.70;;;;;;5089347;27;20081;-74
2022/11/18 04:23:59;;;;;;;7.72;1.50;;;14.50;96.70;;;;;;5102202;27;20031;-74
2022/11/18 04:26:27;;;;;;;6.30;1.50;;;14.50;96.70;;;;;;5076321;27;20238;-73
2022/11/18 04:28:55;;;;;;;9.20;1.85;;;14.60;96.70;;;;;;5116654;27;20055;-73
2022/11/18 04:31:22;;;;;;;14.25;2.25;;;14.60;96.70;;;;;;5072479;27;20125;-73
2022/11/18 04:33:51;;;;;;;8.25;1.45;;;14.60;96.70;;;;;;5101073;27;20036;-74
2022/11/18 04:36:19;;;;;;;13.10;2.08;;;14.60;96.70;;;;;;5090414;27;20133;-74
2022/11/18 04:38:47;;;;;;;7.65;1.52;;;14.70;96.70;;;;;;5086753;28;20039;-73
2022/11/18 04:41:15;;;;;;;5.10;1.58;;;14.70;96.70;;;;;;5119592;27;20047;-74
2022/11/18 04:43:42;;;;;;;9.90;1.83;;;14.70;96.70;;;;;;5079799;28;20060;-74
2022/11/18 04:46:10;;;;;;;11.73;2.00;;;14.70;96.70;;;;;;5062820;28;20087;-73
2022/11/18 04:48:38;;;;;;;7.75;1.85;;;14.70;96.70;;;;;;5071637;28;20040;-74
2022/11/18 04:51:07;;;;;;;14.63;2.28;;;14.80;96.70;;;;;;5076531;28;20690;-74
2022/11/18 04:53:35;;;;;;;10.98;2.05;;;14.80;96.70;;;;;;5054595;28;20474;-74
2022/11/18 04:56:06;;;;;;;10.82;2.65;;;14.80;96.70;;;;;;5063345;28;20044;-74
2022/11/18 04:58:34;;;;;;;9.90;2.38;;;14.90;96.70;;;;;;5067959;28;20060;-74
2022/11/18 05:01:01;;;;;;;12.73;2.22;;;14.90;96.70;;;;;;5064312;28;20091;-73
2022/11/18 05:03:29;;;;;;;10.23;1.80;;;14.90;96.70;;;;;;5072510;28;20063;-74
2022/11/18 05:06:00;;;;;;;12.10;2.42;;;14.90;96.70;;;;;;5071780;28;20048;-74
2022/11/18 05:08:30;;;;;;;14.25;2.20;;;14.90;96.70;;;;;;5067470;28;20044;-74
2022/11/18 05:12:47;;;;;;;11.07;2.00;;;15.00;96.70;;;;;;5097630;27;20053;-74
2022/11/18 05:13:48;;;;;;;10.63;2.90;;;15.00;96.70;;;;;;5064982;28;20047;-73
2022/11/18 05:16:17;;;;;;;12.43;2.97;;;15.00;96.70;;;;;;5062397;28;20060;-74
2022/11/18 05:18:45;;;;;;;12.70;3.13;;;15.00;96.70;;;;;;5063542;28;20144;-74
2022/11/18 05:21:13;;;;;;;17.27;3.38;;;15.00;96.70;;;;;;5049212;28;20056;-72
2022/11/18 05:23:42;;;;;;;12.90;3.28;;;15.00;96.70;;;;;;5065059;28;20486;-73
2022/11/18 05:26:11;;;;;;;22.23;4.30;;;15.00;96.70;;;;;;5067987;28;21020;-73
2022/11/18 05:28:39;;;;;;;12.50;2.67;;;15.00;96.70;;;;;;5066396;28;20048;-73
2022/11/18 05:31:08;;;;;;;21.67;4.55;;;15.10;96.70;;;;;;5064138;28;20041;-74
2022/11/18 05:33:36;;;;;;;13.40;2.83;;;15.10;96.70;;;;;;5063419;28;20072;-73
2022/11/18 05:36:04;;;;;;;10.70;2.20;;;15.10;96.70;;;;;;5075897;28;20048;-74
2022/11/18 05:38:33;;;;;;;11.25;2.45;;;15.10;96.70;;;;;;5049310;28;20044;-73
2022/11/18 05:41:03;;;;;;;13.10;2.30;;;15.00;96.70;;;;;;5074451;28;20040;-73
2022/11/18 05:43:33;;;;;;;11.15;3.05;;;15.00;96.70;;;;;;5091718;27;20051;-73
2022/11/18 05:46:02;;;;;;;8.57;2.50;;;14.80;96.70;;;;;;5097208;27;20058;-73
2022/11/18 05:48:30;;;;;;;9.27;2.55;;;14.70;96.70;;;;;;5092141;27;20044;-73
2022/11/18 05:50:58;;;;;;;9.73;2.63;;;14.60;96.70;;;;;;5099683;27;20059;-73
2022/11/18 05:53:26;;;;;;;7.32;2.08;;;14.50;96.70;;;;;;5109065;27;20050;-73
2022/11/18 05:56:05;;;;;;;11.63;2.30;;;14.50;96.70;;;;;;5093774;27;20043;-74
2022/11/18 05:58:34;;;;;;;11.57;2.28;;;14.50;96.70;;;;;;5112432;27;20051;-73
2022/11/18 06:01:04;;;;;;;8.57;2.70;;;14.40;96.70;;;;;;5074501;27;20134;-73
2022/11/18 06:03:37;;;;;;;10.73;2.58;;;14.50;96.70;;;;;;5102632;27;20047;-73
2022/11/18 06:06:07;;;;;;;7.82;2.00;;;14.40;96.70;;;;;;5087887;28;20066;-73
2022/11/18 06:08:41;;;;;;;10.57;2.22;;;14.40;96.70;;;;;;5086849;28;20130;-73
2022/11/18 06:11:13;;;;;;;8.13;1.70;;;14.40;96.70;;;;;;5084505;28;20047;-73
2022/11/18 06:13:49;;;;;;;16.92;3.17;;;14.40;96.70;;;;;;5106635;27;20536;-73
2022/11/18 06:16:19;;;;;;;8.27;2.10;;;14.30;96.70;;;;;;5089528;28;20036;-72
2022/11/18 06:18:47;;;;;;;8.77;1.67;;;14.30;96.70;;;;;;5116249;27;20041;-73
2022/11/18 06:21:16;;;;;;;12.57;2.50;;;14.40;96.70;;;;;;5113405;27;20580;-73
2022/11/18 06:23:44;;;;;;;8.90;2.20;;;14.40;96.70;;;;;;5102629;27;20127;-73
2022/11/18 06:26:14;;;;;;;9.60;2.30;;;14.30;96.70;;;;;;5094769;28;20039;-73
2022/11/18 06:28:45;;;;;;;7.75;1.98;;;14.30;96.70;;;;;;5087173;28;20066;-74
2022/11/18 06:31:15;;;;;;;6.35;1.90;;;14.30;96.70;;;;;;5109923;27;20115;-73
2022/11/18 06:33:43;;;;;;;10.40;1.83;;;14.30;96.70;;;;;;5093529;28;20496;-73
2022/11/18 06:36:11;;;;;;;7.85;2.25;;;14.30;96.70;;;;;;5085396;28;20514;-73
2022/11/18 06:38:39;;;;;;;15.48;3.47;;;14.20;96.70;;;;;;5095638;28;20043;-73
2022/11/18 06:41:07;;;;;;;9.50;2.97;;;14.30;96.70;;;;;;5109835;28;20039;-73
2022/11/18 06:43:37;;;;;;;10.55;2.88;;;14.40;96.70;;;;;;5107992;28;20130;-74
2022/11/18 06:48:57;;;;;;;7.15;1.90;;;14.50;96.70;;;;;;5088411;28;20058;-73
2022/11/18 06:51:25;;;;;;;10.70;2.47;;;14.40;96.70;;;;;;5092902;28;20051;-73
2022/11/18 06:53:54;;;;;;;7.72;2.25;;;14.40;96.70;;;;;;5120610;27;20051;-73
2022/11/18 06:56:22;;;;;;;8.55;1.85;;;14.40;96.70;;;;;;5097734;27;20038;-73
2022/11/18 06:58:55;;;;;;;8.68;2.13;;;14.40;96.70;;;;;;5088761;27;20044;-73
2022/11/18 07:01:25;;;;;;;6.95;2.00;;;14.40;96.70;;;;;;5111303;27;20527;-73
2022/11/18 07:03:53;;;;;;;8.27;2.08;;;14.30;96.70;;;;;;5116509;27;20043;-73
2022/11/18 07:06:23;;;;;;;11.77;2.90;;;14.30;96.70;;;;;;5068710;28;20093;-72
2022/11/18 07:08:51;;;;;;;10.13;2.97;;;14.30;96.70;;;;;;5098117;28;20051;-73
2022/11/18 07:11:21;;;;;;;13.82;3.00;;;14.40;96.70;;;;;;5109830;27;20493;-72
2022/11/18 07:13:49;;;;;;;10.50;2.75;;;14.40;96.70;;;;;;5094956;27;20039;-72
2022/11/18 07:16:18;;;;;;;13.18;3.22;;;14.40;96.70;;;;;;5071271;28;20048;-73
2022/11/18 07:18:49;;;;;;;13.38;3.65;;;14.30;96.70;;;;;;5117410;27;20145;-73
2022/11/18 07:21:21;;;;;;;12.63;3.17;;;14.40;96.70;;;;;;5108919;27;20048;-73
2022/11/18 07:23:50;;;;;;;9.80;3.65;;;14.40;96.70;;;;;;5090580;28;20460;-73
2022/11/18 07:26:20;;;;;;;15.48;3.80;;;14.40;96.70;;;;;;5112074;27;20039;-72
2022/11/18 07:28:47;;;;;;;13.85;3.78;;;14.40;96.70;;;;;;5111458;27;20040;-73
2022/11/18 07:31:17;;;;;;;14.05;3.42;;;14.50;96.70;;;;;;5110741;27;20035;-73
2022/11/18 07:33:47;;;;;;;11.05;3.10;;;14.60;96.70;;;;;;5109913;27;20039;-73
2022/11/18 07:36:17;;;;;;;15.23;3.75;;;14.60;96.70;;;;;;5094881;27;20066;-73
2022/11/18 07:38:46;;;;;;;10.10;3.40;;;14.70;96.70;;;;;;5080319;27;20074;-72
2022/11/18 07:41:15;;;;;;;12.40;2.75;;;14.70;96.70;;;;;;5079972;28;20134;-73
2022/11/18 07:43:44;;;;;;;15.25;3.53;;;14.80;96.70;;;;;;5088607;28;20146;-72
2022/11/18 07:46:14;;;;;;;13.88;3.38;;;14.90;96.70;;;;;;5092967;28;20075;-72
2022/11/18 07:48:43;;;;;;;13.57;3.30;;;15.00;96.70;;;;;;5115746;27;20143;-72
2022/11/18 07:51:13;;;;;;;14.73;3.15;;;15.00;96.70;;;;;;5120893;27;20051;-72
2022/11/18 07:53:42;;;;;;;16.63;3.25;;;15.10;96.70;;;;;;5107226;27;20485;-72
2022/11/18 07:56:11;;;;;;;13.65;3.22;;;15.20;96.70;;;;;;5103286;27;20051;-72
2022/11/18 07:58:39;;;;;;;15.90;3.47;;;15.30;96.70;;;;;;5095089;27;20499;-72
2022/11/18 08:01:09;;;;;;;15.25;3.45;;;15.40;96.70;;;;;;5121288;27;20043;-73
2022/11/18 08:03:37;;;;;;;10.50;2.20;;;15.50;96.70;;;;;;5104805;27;20071;-73
2022/11/18 08:06:06;;;;;;;10.48;1.88;;;15.40;96.70;;;;;;5087406;27;20039;-72
2022/11/18 08:08:36;;;;;;;10.32;2.17;;;15.50;96.70;;;;;;5089686;28;20062;-73
2022/11/18 08:11:06;;;;;;;9.38;1.83;;;15.50;96.70;;;;;;5080125;27;20044;-72
2022/11/18 08:13:35;;;;;;;9.60;1.90;;;15.70;96.70;;;;;;5094233;28;20048;-72
2022/11/18 08:16:04;;;;;;;11.23;2.22;;;15.70;96.70;;;;;;5086461;28;20054;-72
2022/11/18 08:18:32;;;;;;;7.97;2.00;;;15.80;96.70;;;;;;5114540;27;20038;-72
2022/11/18 08:21:02;;;;;;;9.27;1.92;;;15.90;96.70;;;;;;5112492;27;20067;-72
2022/11/18 08:23:30;;;;;;;12.25;2.53;;;16.10;96.70;;;;;;5108751;27;20044;-72
2022/11/18 08:26:07;;;;;;;11.02;2.33;;;16.30;96.70;;;;;;5118642;27;20519;-72
2022/11/18 08:28:35;;;;;;;13.02;2.90;;;16.40;96.70;;;;;;5087134;27;20285;-72
2022/11/18 08:31:09;;;;;;;13.23;2.25;;;16.40;96.70;;;;;;5088981;27;20399;-72
2022/11/18 08:33:37;;;;;;;12.98;2.45;;;16.50;96.70;;;;;;5112100;27;20114;-73
2022/11/18 08:36:07;;;;;;;11.25;2.95;;;16.60;96.70;;;;;;5086426;28;20036;-73
2022/11/18 08:38:35;;;;;;;11.13;2.40;;;16.60;96.70;;;;;;5093816;27;20486;-73
2022/11/18 08:41:06;;;;;;;14.40;2.60;;;16.70;96.70;;;;;;5106322;27;20381;-72
2022/11/18 08:43:35;;;;;;;14.95;2.22;;;16.80;96.70;;;;;;5092289;28;20149;-73
2022/11/18 08:46:03;;;;;;;8.55;1.63;;;16.80;96.70;;;;;;5071610;28;20077;-73
2022/11/18 08:48:31;;;;;;;8.50;1.98;;;17.00;96.70;;;;;;5053860;28;20201;-72
2022/11/18 08:51:00;;;;;;;10.55;2.15;;;17.00;96.70;;;;;;5074212;28;20609;-72
2022/11/18 08:53:28;;;;;;;13.13;2.85;;;17.10;96.70;;;;;;5075419;28;20048;-74
2022/11/18 08:55:56;;;;;;;11.02;2.08;;;17.20;96.70;;;;;;5060636;28;20044;-72
2022/11/18 08:58:26;;;;;;;9.68;1.90;;;17.30;96.70;;;;;;5066087;28;20399;-72
2022/11/18 09:00:54;;;;;;;11.60;2.33;;;17.40;96.70;;;;;;5074198;28;20044;-72
2022/11/18 09:03:22;;;;;;;8.55;2.00;;;17.40;96.70;;;;;;5066284;28;20052;-73
2022/11/18 09:05:50;;;;;;;9.52;1.77;;;17.40;96.70;;;;;;5066123;28;20498;-72
2022/11/18 09:08:19;;;;;;;12.48;2.35;;;17.50;96.70;;;;;;5062249;28;20044;-72
2022/11/18 09:10:46;;;;;;;14.60;2.22;;;17.60;96.70;;;;;;5072097;28;20059;-73
2022/11/18 09:13:14;;;;;;;7.78;1.65;;;17.60;96.70;;;;;;5062471;28;20101;-72
2022/11/18 09:16:05;;;;;;;14.60;2.63;;;17.70;96.70;;;;;;5067521;28;20130;-72
2022/11/18 09:18:34;;;;;;;10.25;2.15;;;17.70;96.70;;;;;;5094343;28;20098;-72
2022/11/18 09:21:04;;;;;;;11.05;2.13;;;17.80;96.70;;;;;;5068976;28;20107;-73
2022/11/18 09:23:33;;;;;;;18.55;2.35;;;17.80;96.70;;;;;;5063031;28;20045;-72
2022/11/18 09:26:03;;;;;;;10.73;1.88;;;17.90;96.70;;;;;;5065964;28;20472;-73
2022/11/18 09:28:32;;;;;;;10.52;2.00;;;17.90;96.70;;;;;;5074521;28;20506;-72
2022/11/18 09:31:05;;;;;;;8.88;1.65;;;18.00;96.70;;;;;;5068320;28;20098;-72
2022/11/18 09:33:33;;;;;;;10.48;2.03;;;18.10;96.70;;;;;;5066312;28;20143;-73
2022/11/18 09:36:02;;;;;;;11.75;1.90;;;18.10;96.70;;;;;;5068317;28;20502;-72
2022/11/18 09:38:30;;;;;;;11.52;2.80;;;18.20;96.70;;;;;;5063760;28;20052;-73
2022/11/18 09:41:06;;;;;;;7.60;2.10;;;18.20;96.70;;;;;;5074635;28;20044;-73
2022/11/18 09:43:44;;;;;;;11.15;2.00;;;18.30;96.70;;;;;;5079238;27;20052;-73
2022/11/18 09:46:26;;;;;;;7.90;1.85;;;18.30;96.70;;;;;;5102938;27;20039;-73
2022/11/18 09:49:13;;;;;;;9.65;2.08;;;18.40;96.70;;;;;;5107142;27;20051;-72
2022/11/18 09:51:45;;;;;;;18.60;3.15;;;18.40;96.70;;;;;;5079607;27;20043;-73
2022/11/18 09:54:19;;;;;;;7.68;1.95;;;18.50;96.70;;;;;;5111424;27;20043;-73
2022/11/18 09:56:51;;;;;;;11.37;1.77;;;18.60;96.70;;;;;;5121288;27;20066;-72
2022/11/18 09:59:21;;;;;;;12.75;2.42;;;18.70;96.70;;;;;;5109973;27;20854;-72
2022/11/18 10:01:53;;;;;;;9.60;1.80;;;18.70;96.70;;;;;;5119653;27;20047;-73
2022/11/18 10:04:21;;;;;;;8.05;1.65;;;18.70;96.70;;;;;;5099721;27;20131;-73
2022/11/18 10:06:50;;;;;;;10.30;1.75;;;18.70;96.70;;;;;;5096197;28;20036;-73
2022/11/18 10:09:29;;;;;;;9.20;1.60;;;18.70;96.70;;;;;;5109373;27;20127;-72
2022/11/18 10:12:18;;;;;;;5.10;1.05;;;18.70;96.70;;;;;;5102033;27;20047;-73
2022/11/18 10:14:59;;;;;;;7.63;1.52;;;18.80;96.70;;;;;;5119290;27;20768;-73
2022/11/18 10:17:45;;;;;;;9.88;1.70;;;18.80;96.70;;;;;;5093339;28;20057;-72
2022/11/18 10:20:22;;;;;;;6.17;1.23;;;19.00;96.70;;;;;;5117869;27;20506;-73
2022/11/18 10:22:54;;;;;;;9.93;1.83;;;19.10;96.70;;;;;;5103556;27;20048;-73
2022/11/18 10:25:22;;;;;;;13.55;2.60;;;19.20;96.70;;;;;;5113255;27;20524;-72
2022/11/18 10:27:51;;;;;;;13.10;2.05;;;19.20;96.70;;;;;;5091041;27;20090;-73
2022/11/18 10:30:20;;;;;;;8.82;2.25;;;19.20;96.70;;;;;;5108364;27;20063;-73
2022/11/18 10:32:58;;;;;;;6.47;1.83;;;19.20;96.70;;;;;;5107135;27;20126;-73
2022/11/18 10:35:30;;;;;;;11.70;1.98;;;19.20;96.70;;;;;;5083562;28;20048;-73
2022/11/18 10:38:01;;;;;;;7.03;2.25;;;19.30;96.70;;;;;;5092748;27;20047;-73
2022/11/18 10:40:41;;;;;;;12.43;2.33;;;19.30;96.70;;;;;;5116333;27;20035;-73
2022/11/18 10:43:10;;;;;;;9.20;2.00;;;19.30;96.70;;;;;;5107472;27;20108;-73
2022/11/18 10:45:38;;;;;;;13.55;2.55;;;19.00;96.70;;;;;;5092545;28;20036;-73
2022/11/18 10:48:16;;;;;;;10.00;2.28;;;18.90;96.70;;;;;;5102477;28;20047;-72
2022/11/18 10:50:46;;;;;;;8.98;2.17;;;18.70;96.70;;;;;;5090310;28;20047;-73
2022/11/18 10:53:31;;;;;;;9.68;2.85;;;18.50;96.70;;;;;;5111884;27;20039;-73
2022/11/18 10:56:01;;;;;;;11.80;2.30;;;18.40;96.70;;;;;;5089137;28;20044;-70
2022/11/18 10:58:31;;;;;;;9.73;2.58;;;18.60;96.70;;;;;;5120418;27;20039;-70
2022/11/18 11:01:05;;;;;;;12.10;2.72;;;18.50;96.70;;;;;;5090132;28;20043;-70
2022/11/18 11:03:37;;;;;;;9.07;2.28;;;18.60;96.70;;;;;;5110096;28;20134;-70
2022/11/18 11:06:40;;;;;;;8.25;1.85;;;18.70;96.70;;;;;;5071116;28;20059;-70
2022/11/18 11:09:21;;;;;;;10.20;2.20;;;18.90;96.70;;;;;;5103509;28;20135;-70
2022/11/18 11:11:57;;;;;;;9.88;2.60;;;19.00;96.70;;;;;;5088762;28;20576;-71
2022/11/18 11:14:29;;;;;;;8.37;2.77;;;18.90;96.70;;;;;;5090485;28;20044;-70
2022/11/18 11:17:02;;;;;;;8.88;2.15;;;19.00;96.70;;;;;;5095421;28;20451;-71
2022/11/18 11:19:44;;;;;;;5.70;2.33;;;19.20;96.70;;;;;;5108754;27;20489;-70
2022/11/18 11:22:13;;;;;;;4.63;2.20;;;19.30;96.70;;;;;;5091031;28;20047;-70
2022/11/18 11:24:41;;;;;;;5.13;2.15;;;19.30;96.70;;;;;;5118745;27;20130;-71
2022/11/18 11:27:36;;;;;;;6.40;2.17;;;19.40;96.70;;;;;;5109816;28;20045;-70
2022/11/18 11:30:25;;;;;;;6.00;2.45;;;19.30;96.70;;;;;;5109620;28;20092;-70
2022/11/18 11:33:14;;;;;;;5.43;2.17;;;19.30;96.70;;;;;;5116385;28;20547;-70
2022/11/18 11:35:49;;;;;;;7.53;2.63;;;19.30;96.70;;;;;;5089487;28;20117;-70
2022/11/18 11:38:27;;;;;;;6.70;2.57;;;19.40;96.70;;;;;;5107205;27;20067;-70
2022/11/18 11:41:06;;;;;;;6.35;2.10;;;19.10;96.70;;;;;;5117804;27;20063;-70
2022/11/18 11:43:43;;;;;;;4.75;2.17;;;18.90;96.70;;;;;;5098956;27;20055;-70
2022/11/18 11:46:26;;;;;;;3.40;1.98;;;19.10;96.70;;;;;;5085683;27;20069;-70
2022/11/18 11:49:10;;;;;;;6.93;2.45;;;19.20;96.70;;;;;;5117204;27;20711;-70
2022/11/18 11:51:49;;;;;;;5.47;2.78;;;19.30;96.70;;;;;;5106572;27;20074;-70
2022/11/18 11:54:32;;;;;;;6.13;2.65;;;19.30;96.70;;;;;;5087941;27;21141;-70
2022/11/18 11:57:04;;;;;;;6.50;2.30;;;19.40;96.70;;;;;;5120688;27;20171;-70
2022/11/18 11:59:43;;;;;;;6.72;2.58;;;19.30;96.70;;;;;;5090301;27;20491;-70
2022/11/18 12:02:32;;;;;;;6.80;2.50;;;19.40;96.70;;;;;;5100974;28;20079;-70
2022/11/18 12:05:07;;;;;;;3.88;1.83;;;19.40;96.70;;;;;;5105287;27;20076;-70
2022/11/18 12:07:44;;;;;;;6.10;2.05;;;19.50;96.70;;;;;;5098223;27;20051;-70
2022/11/18 12:10:28;;;;;;;7.53;2.35;;;19.60;96.70;;;;;;5109124;27;20047;-70
2022/11/18 12:13:08;;;;;;;5.70;2.15;;;19.60;96.70;;;;;;5095081;28;20848;-70
2022/11/18 12:15:49;;;;;;;10.00;2.25;;;19.60;96.70;;;;;;5102491;27;20054;-70
2022/11/18 12:18:25;;;;;;;6.03;2.22;;;19.50;96.70;;;;;;5112464;27;20058;-70
2022/11/18 12:20:53;;;;;;;6.57;2.20;;;19.60;96.70;;;;;;5115298;27;20055;-70
2022/11/18 12:23:25;;;;;;;9.80;2.47;;;19.60;96.70;;;;;;5088609;28;20065;-70
2022/11/18 12:25:56;;;;;;;6.78;2.15;;;19.70;96.70;;;;;;5122060;27;20048;-71
2022/11/18 12:28:37;;;;;;;5.65;2.20;;;19.90;96.70;;;;;;5087182;27;20078;-70
2022/11/18 12:31:36;;;;;;;6.80;2.33;;;20.10;96.70;;;;;;5099419;27;20803;-71
2022/11/18 12:34:31;;;;;;;4.57;2.20;;;20.20;96.70;;;;;;5109622;27;20074;-70
2022/11/18 12:37:42;;;;;;;4.25;2.47;;;20.30;96.70;;;;;;5106272;27;20188;-70
2022/11/18 12:40:37;;;;;;;4.15;1.70;;;20.30;96.70;;;;;;5095843;28;20039;-70
2022/11/18 12:45:58;;;;;;;3.67;1.58;;;20.10;96.70;;;;;;5079452;28;20047;-69
2022/11/18 12:48:35;;;;;;;5.85;1.83;;;20.10;96.70;;;;;;5076996;28;20100;-70
2022/11/18 12:51:25;;;;;;;6.38;1.95;;;20.20;96.70;;;;;;5078634;28;20051;-70
2022/11/18 12:53:54;;;;;;;4.25;1.73;;;20.20;96.70;;;;;;5060018;28;20056;-70
2022/11/18 12:56:26;;;;;;;6.75;1.92;;;20.10;96.70;;;;;;5075023;28;20490;-70
2022/11/18 12:58:56;;;;;;;8.15;1.70;;;20.10;96.70;;;;;;5076024;28;20055;-70
2022/11/18 13:01:26;;;;;;;8.75;2.15;;;20.10;96.70;;;;;;5078324;28;20186;-70
2022/11/18 13:04:07;;;;;;;5.63;1.48;;;20.10;96.70;;;;;;5069719;28;20052;-70
2022/11/18 13:06:38;;;;;;;6.38;2.08;;;20.10;96.70;;;;;;5077511;28;20163;-70
2022/11/18 13:09:14;;;;;;;6.28;1.92;;;20.10;96.70;;;;;;5062486;28;20068;-70
2022/11/18 13:11:46;;;;;;;;;;;20.00;96.70;;;;;;5079793;28;20098;-71
2022/11/18 13:20:26;;;;;;;4.60;1.75;;;19.80;96.70;;;;;;5070049;28;20044;-69
2022/11/18 13:25:44;;;;;;;4.97;1.75;;;19.70;96.70;;;;;;5074680;28;20138;-70
2022/11/18 13:28:25;;;;;;;5.60;1.55;;;19.60;96.70;;;;;;5054357;28;20032;-70
2022/11/18 13:30:59;;;;;;;6.05;1.77;;;19.60;96.70;;;;;;5076810;28;20501;-70
2022/11/18 13:33:28;;;;;;;2.92;1.52;;;19.60;96.70;;;;;;5079615;28;20592;-70